• Join FlightAware (Why Join?)
  • Login
  • US Flag 
04:42PM EST


 

Airport Tracker/Info


-or-


 

Live Flight TrackerFlight Track Log ✈ SWA17 ✈ 25-Dec-2013 ✈ KLAS - KSEA

Flight Track Log - Related Links

Times and Time Zones

All times are in EST time to prevent confusion due to time zone crossing. See the SWA17 flight status page for this flight to view local times or setup timezone preferences in your user account.

Time Position Orientation Groundspeed Altitude Reporting Facility
EST Latitude Longitude Course Direction KTS MPH feet Rate Location/Type
02:11PM 36.0758 -115.1764 321° Northwest 166 191 3,400  Level Los Angeles Center
02:12PM 36.0494 -115.2647 250° West 264 304 5,700 1,740 Climbing Los Angeles Center
02:13PM 36.0208 -115.2769 199° South 281 323 6,400 1,620 Climbing Los Angeles Center
02:13PM 35.9792 -115.2983 203° Southwest 302 348 7,200 2,220 Climbing Los Angeles Center
02:14PM 35.9506 -115.3267 219° Southwest 294 338 8,700 3,180 Climbing Los Angeles Center
02:14PM 35.9253 -115.3586 226° Southwest 303 349 10,100 2,220 Climbing Los Angeles Center
02:15PM 35.8911 -115.4125 232° Southwest 307 353 11,000 540 Climbing Los Angeles Center
02:16PM 35.8889 -115.5236 269° West 326 375 11,000  Level Los Angeles Center
02:17PM 36.2813 -115.2574 321° Northwest  Level Estimated
02:17PM 35.8906 -115.6486 271° West 361 415 11,000  Level Los Angeles Center
02:18PM 35.8931 -115.7878 271° West 376 433 14,100 3,000 Climbing Los Angeles Center
02:19PM 35.8961 -115.9192 272° West 383 441 17,200 2,640 Climbing Los Angeles Center
02:20PM 35.9531 -116.0339 302° West 380 437 19,600 2,160 Climbing Los Angeles Center
02:21PM 36.0325 -116.1269 317° Northwest 391 450 21,700 1,800 Climbing Los Angeles Center
02:22PM 36.1075 -116.2133 317° Northwest 407 468 23,400 1,800 Climbing Los Angeles Center
02:23PM 36.1917 -116.3111 317° Northwest 414 476 25,400 1,920 Climbing Los Angeles Center
02:24PM 36.2969 -116.4322 317° Northwest 432 497 27,400 1,680 Climbing Los Angeles Center
02:25PM 36.3844 -116.5347 317° Northwest 435 501 28,900 1,680 Climbing Los Angeles Center
02:26PM 36.4725 -116.6381 317° Northwest 437 503 30,900 1,920 Climbing Los Angeles Center
02:27PM 36.5689 -116.7500 317° Northwest 426 490 32,900 1,680 Climbing Los Angeles Center
02:28PM 36.6681 -116.8258 328° Northwest 417 480 34,400 1,200 Climbing Los Angeles Center
02:29PM 36.7547 -116.8900 329° Northwest 415 478 35,400 720 Climbing Los Angeles Center
02:30PM 36.8661 -116.9764 328° Northwest 416 479 36,000 240 Climbing Los Angeles Center
02:31PM 36.9642 -117.0522 328° Northwest 414 476 36,000  Level Los Angeles Center
02:32PM 37.0625 -117.1269 329° Northwest 412 474 36,000  Level Los Angeles Center
02:33PM 37.1611 -117.2022 329° Northwest 413 475 36,000  Level Los Angeles Center
02:34PM 37.2597 -117.2789 328° Northwest 414 476 36,000  Level Los Angeles Center
02:35PM 37.3828 -117.3625 332° Northwest 414 476 36,000  Level Los Angeles Center
02:36PM 37.4453 -117.4047 332° Northwest 419 482 36,000  Level Oakland Center
02:37PM 37.5481 -117.4742 332° Northwest 419 482 36,000  Level Oakland Center
02:38PM 37.6511 -117.5397 333° Northwest 415 478 36,000  Level Oakland Center
02:39PM 37.7553 -117.6072 333° Northwest 418 481 36,000  Level Oakland Center
02:40PM 37.8594 -117.6733 333° Northwest 416 479 36,000  Level Oakland Center
02:41PM 37.9639 -117.7428 332° Northwest 418 481 36,000  Level Oakland Center
02:42PM 38.0631 -117.8214 328° Northwest 419 482 36,000  Level Oakland Center
02:43PM 38.1717 -117.8792 337° Northwest 421 484 36,000  Level Oakland Center
02:44PM 38.2803 -117.9386 337° Northwest 422 486 36,000  Level Oakland Center
02:45PM 38.3869 -117.9975 337° Northwest 417 480 36,000  Level Oakland Center
02:46PM 38.4953 -118.0561 337° Northwest 420 483 36,000  Level Oakland Center
02:47PM 38.5972 -118.1125 337° Northwest 415 478 36,000  Level Oakland Center
02:48PM 38.7228 -118.1836 336° Northwest 413 475 36,000  Level Oakland Center
02:49PM 38.8281 -118.2411 337° Northwest 412 474 36,000  Level Oakland Center
02:50PM 38.9333 -118.3008 336° Northwest 412 474 36,000  Level Oakland Center
02:51PM 39.0383 -118.3600 336° Northwest 413 475 36,000  Level Oakland Center
02:52PM 39.1422 -118.4189 336° Northwest 410 472 36,000  Level Oakland Center
02:53PM 39.2528 -118.4819 336° Northwest 409 471 36,000  Level Oakland Center
02:54PM 39.3561 -118.5394 337° Northwest 406 467 36,000  Level Oakland Center
02:55PM 39.4617 -118.5981 337° Northwest 410 472 36,000  Level Oakland Center
02:56PM 39.5719 -118.6639 335° Northwest 407 468 36,000  Level Oakland Center
02:57PM 39.6756 -118.7222 337° Northwest 407 468 36,000  Level Oakland Center
02:58PM 39.7800 -118.7831 336° Northwest 412 474 36,000  Level Oakland Center
02:59PM 39.8853 -118.8428 336° Northwest 413 475 36,000  Level Oakland Center
03:00PM 39.9906 -118.9044 336° Northwest 415 478 36,000  Level Oakland Center
03:01PM 40.0969 -118.9664 336° Northwest 417 480 36,000  Level Oakland Center
03:02PM 40.2031 -119.0286 336° Northwest 418 481 36,000  Level Oakland Center
03:03PM 40.3078 -119.0894 336° Northwest 414 476 36,000  Level Oakland Center
03:04PM 40.4119 -119.1506 336° Northwest 410 472 36,000  Level Oakland Center
03:05PM 40.5175 -119.2131 336° Northwest 414 476 36,000  Level Oakland Center
03:06PM 40.6208 -119.2725 336° Northwest 408 470 36,000  Level Oakland Center
03:07PM 40.7467 -119.3492 335° Northwest 414 476 36,000  Level Oakland Center
03:09PM 40.8389 -119.4008 337° Northwest 413 475 36,000  Level Oakland Center
03:10PM 40.9564 -119.4719 335° Northwest 413 475 36,000  Level Oakland Center
03:11PM 41.0556 -119.5319 335° Northwest 412 474 36,000  Level Oakland Center
03:12PM 41.1511 -119.5942 334° Northwest 411 473 36,000  Level Oakland Center
03:13PM 41.2564 -119.6553 336° Northwest 413 475 36,000  Level Oakland Center
03:14PM 41.3600 -119.7178 336° Northwest 412 474 36,000  Level Oakland Center
03:15PM 41.4878 -119.7922 336° Northwest 411 473 36,000  Level Seattle Center
03:16PM 41.5897 -119.8553 335° Northwest 407 468 36,000  Level Seattle Center
03:17PM 41.6917 -119.9169 336° Northwest 403 464 36,000  Level Seattle Center
03:18PM 41.7936 -119.9792 336° Northwest 404 465 36,000  Level Seattle Center
03:19PM 41.8922 -120.0411 335° Northwest 398 458 36,000  Level Seattle Center
03:20PM 41.9906 -120.1019 335° Northwest 393 452 36,000  Level Seattle Center
03:21PM 42.0889 -120.1639 335° Northwest 391 450 36,000  Level Seattle Center
03:22PM 42.1881 -120.2258 335° Northwest 394 453 36,000  Level Seattle Center
03:23PM 42.2878 -120.2881 335° Northwest 396 456 36,000  Level Seattle Center
03:24PM 42.3886 -120.3511 335° Northwest 399 459 36,000  Level Seattle Center
03:25PM 42.4892 -120.4125 336° Northwest 397 457 36,000  Level Seattle Center
03:26PM 42.6089 -120.4892 335° Northwest 398 458 36,000  Level Seattle Center
03:27PM 42.7103 -120.5531 335° Northwest 402 463 36,000  Level Seattle Center
03:28PM 42.8108 -120.6169 335° Northwest 402 463 36,000  Level Seattle Center
03:29PM 42.9128 -120.6833 335° Northwest 404 465 36,000  Level Seattle Center
03:30PM 43.0158 -120.7486 335° Northwest 408 470 36,000  Level Seattle Center
03:31PM 43.1203 -120.8150 335° Northwest 412 474 36,000  Level Seattle Center
03:32PM 43.2250 -120.8831 335° Northwest 415 478 36,000  Level Seattle Center
03:33PM 43.3294 -120.9514 335° Northwest 418 481 36,000  Level Seattle Center
03:34PM 43.4347 -121.0172 336° Northwest 417 480 36,000  Level Seattle Center
03:35PM 43.5392 -121.0864 334° Northwest 418 481 36,000  Level Seattle Center
03:36PM 43.6439 -121.1572 334° Northwest 420 483 36,000 -180 Level Seattle Center
03:37PM 43.7469 -121.2253 335° Northwest 413 475 35,700 -720 Descending Seattle Center
03:38PM 43.8619 -121.2986 335° Northwest 411 473 34,600 -840 Descending Seattle Center
03:39PM 43.9669 -121.3681 335° Northwest 417 480 34,000 -300 Descending Seattle Center
03:40PM 44.0678 -121.4356 334° Northwest 406 467 34,000  Level Seattle Center
03:41PM 44.1697 -121.5028 335° Northwest 405 466 34,000  Level Seattle Center
03:42PM 44.2692 -121.5703 334° Northwest 400 460 34,000  Level Seattle Center
03:43PM 44.3731 -121.6403 334° Northwest 396 456 34,000  Level Seattle Center
03:44PM 44.4742 -121.7078 335° Northwest 398 458 34,000  Level Seattle Center
03:45PM 44.5753 -121.7758 334° Northwest 400 460 34,000  Level Seattle Center
03:46PM 44.6756 -121.8436 334° Northwest 400 460 34,000  Level Seattle Center
03:47PM 44.7736 -121.9111 334° Northwest 393 452 34,000  Level Seattle Center
03:48PM 44.8711 -121.9789 334° Northwest 390 449 34,000  Level Seattle Center
03:49PM 44.9700 -122.0481 334° Northwest 387 445 34,000  Level Seattle Center
03:50PM 45.0667 -122.1156 334° Northwest 389 448 34,000  Level Seattle Center
03:51PM 45.1639 -122.1822 334° Northwest 390 449 34,000  Level Seattle Center
03:52PM 45.2625 -122.2486 335° Northwest 393 452 34,000  Level Seattle Center
03:53PM 45.3575 -122.3175 333° Northwest 388 447 34,000  Level Seattle Center
03:54PM 45.4547 -122.3833 335° Northwest 389 448 34,000  Level Seattle Center
03:55PM 45.5511 -122.4525 333° Northwest 389 448 34,000  Level Seattle Center
03:56PM 45.6500 -122.5214 334° Northwest 394 453 34,000  Level Seattle Center
03:57PM 45.7481 -122.5892 334° Northwest 395 455 34,000  Level Seattle Center
03:58PM 45.8578 -122.6172 350° North 401 461 34,000 -300 Level Seattle Center
03:59PM 45.9886 -122.6517 350° North 401 461 33,400 -1,500 Descending Seattle Center
04:00PM 46.0950 -122.6758 351° North 392 451 31,000 -2,220 Descending Seattle Center
04:01PM 46.1989 -122.6983 351° North 384 442 29,000 -1,920 Descending Seattle Center
04:02PM 46.2889 -122.7161 352° North 368 423 27,200 -1,860 Descending Seattle Center
04:03PM 46.3883 -122.7272 356° North 364 419 25,300 -1,920 Descending Seattle Center
04:04PM 46.4903 -122.7297 359° North 367 422 23,400 -1,920 Descending Seattle Center
04:05PM 46.5894 -122.7336 358° North 359 413 21,500 -2,040 Descending Seattle Center
04:06PM 46.6681 -122.7364 359° North 351 404 20,100 -1,800 Descending Seattle Center
04:06PM 46.6861 -122.7386 355° North 350 403 19,700 -1,740 Descending Seattle Center
04:07PM 46.7703 -122.7367 North 339 390 18,200 -1,680 Descending Seattle Center
04:07PM 46.7992 -122.7278 12° North 342 394 18,000 -840 Descending Seattle Center
04:08PM 46.8511 -122.6611 41° Northeast 352 405 17,400 -1,440 Descending Seattle Center
04:08PM 46.8742 -122.6325 40° Northeast 368 423 16,600 -2,100 Descending Seattle Center
04:09PM 46.9289 -122.5736 36° Northeast 358 412 15,300 -1,920 Descending Seattle Center
04:09PM 46.9550 -122.5519 30° Northeast 356 410 14,700 -1,920 Descending Seattle Center
04:10PM 47.0233 -122.5258 15° North 333 383 13,400 -1,680 Descending Seattle Center
04:10PM 47.0450 -122.5150 19° North 339 390 13,000 -1,740 Descending Seattle Center
04:11PM 47.1108 -122.4944 12° North 321 369 11,700 -1,740 Descending Seattle Center
04:11PM 47.1325 -122.4886 10° North 325 374 11,300 -1,140 Descending Seattle Center
04:12PM 47.1783 -122.4806 North 309 356 10,800 -1,140 Descending Seattle Center
04:12PM 47.2200 -122.4739 North 297 342 10,200 -1,020 Descending Seattle Center
04:13PM 47.2578 -122.4697 North 285 328 9,800 -1,140 Descending Seattle Center
04:13PM 47.2975 -122.4633 North 278 320 9,100 -1,320 Descending Seattle Center
04:14PM 47.3372 -122.4592 North 267 307 8,500 -1,140 Descending Seattle Center
04:14PM 47.3708 -122.4542 North 266 306 8,000 -1,140 Descending Seattle Center
04:15PM 47.4097 -122.4553 359° North 256 295 7,400 -1,200 Descending Seattle Center
04:15PM 47.4431 -122.4550 360° North 259 298 6,800 -1,020 Descending Seattle Center
04:16PM 47.4919 -122.4561 359° North 254 292 6,200 -840 Descending Seattle Center
04:16PM 47.5136 -122.4553 North 252 290 6,000 -660 Descending Seattle Center
04:17PM 47.5519 -122.4558 359° North 231 266 5,600 -840 Descending Seattle Center
04:17PM 47.5750 -122.4417 23° Northeast 228 262 5,200 -1,140 Descending Seattle Center
04:18PM 47.6086 -122.4247 19° North 225 259 4,600 -1,020 Descending Seattle Center
04:18PM 47.6311 -122.4003 36° Northeast 228 262 4,200 -900 Descending Seattle Center
04:19PM 47.6183 -122.3247 104° East 203 234 3,300 -900 Descending Seattle Center
04:20PM 47.5842 -122.3103 164° South 167 192 2,700 -840 Descending Seattle Center
04:20PM 47.5731 -122.3103 180° South 178 205 2,500 -720 Descending Seattle Center
04:21PM 47.5372 -122.3097 179° South 161 185 2,000 -720 Descending Seattle Center
04:21PM 47.5275 -122.3108 184° South 167 192 1,800 -900 Descending Seattle Center
04:22PM 47.4978 -122.3119 181° South 153 176 1,200 -840 Descending Seattle Center
04:22PM 47.4856 -122.3106 176° South 152 175 1,000 -600 Descending Seattle Center
04:23PM 47.4456 -122.3131 182° South 147 169 400 -600 Descending Seattle Center
04:25PM 47.4499 -122.3118 176° South  Level Estimated